sensor_id;sensor_type;location;lat;lon;timestamp;P1;durP1;ratioP1;P2;durP2;ratioP2
5117;SDS011;2578;51.622;7.046;2024-01-10T00:02:25;77.93;;;26.20;;
5117;SDS011;2578;51.622;7.046;2024-01-10T00:04:51;76.20;;;25.30;;
5117;SDS011;2578;51.622;7.046;2024-01-10T00:07:17;78.67;;;27.40;;
5117;SDS011;2578;51.622;7.046;2024-01-10T00:09:43;76.50;;;25.83;;
5117;SDS011;2578;51.622;7.046;2024-01-10T00:12:10;82.67;;;27.50;;
5117;SDS011;2578;51.622;7.046;2024-01-10T00:14:36;76.97;;;26.03;;
5117;SDS011;2578;51.622;7.046;2024-01-10T00:17:02;77.47;;;25.47;;
5117;SDS011;2578;51.622;7.046;2024-01-10T00:19:28;76.07;;;25.20;;
5117;SDS011;2578;51.622;7.046;2024-01-10T00:21:54;77.20;;;24.43;;
5117;SDS011;2578;51.622;7.046;2024-01-10T00:24:20;79.13;;;24.87;;
5117;SDS011;2578;51.622;7.046;2024-01-10T00:26:46;75.40;;;23.40;;
5117;SDS011;2578;51.622;7.046;2024-01-10T00:29:12;76.57;;;24.30;;
5117;SDS011;2578;51.622;7.046;2024-01-10T00:31:38;81.03;;;26.93;;
5117;SDS011;2578;51.622;7.046;2024-01-10T00:34:04;76.30;;;24.07;;
5117;SDS011;2578;51.622;7.046;2024-01-10T00:36:30;75.60;;;22.40;;
5117;SDS011;2578;51.622;7.046;2024-01-10T00:38:56;77.23;;;24.70;;
5117;SDS011;2578;51.622;7.046;2024-01-10T00:41:22;76.93;;;24.70;;
5117;SDS011;2578;51.622;7.046;2024-01-10T00:43:47;77.00;;;24.47;;
5117;SDS011;2578;51.622;7.046;2024-01-10T00:46:13;77.30;;;24.93;;
5117;SDS011;2578;51.622;7.046;2024-01-10T00:48:39;75.27;;;23.30;;
5117;SDS011;2578;51.622;7.046;2024-01-10T00:51:05;76.67;;;24.10;;
5117;SDS011;2578;51.622;7.046;2024-01-10T00:53:34;77.87;;;23.50;;
5117;SDS011;2578;51.622;7.046;2024-01-10T00:56:00;79.67;;;24.03;;
5117;SDS011;2578;51.622;7.046;2024-01-10T00:58:25;76.67;;;22.20;;
5117;SDS011;2578;51.622;7.046;2024-01-10T01:00:51;77.50;;;22.70;;
5117;SDS011;2578;51.622;7.046;2024-01-10T01:03:17;79.87;;;21.80;;
5117;SDS011;2578;51.622;7.046;2024-01-10T01:05:43;84.30;;;25.63;;
5117;SDS011;2578;51.622;7.046;2024-01-10T01:08:09;76.37;;;24.00;;
5117;SDS011;2578;51.622;7.046;2024-01-10T01:10:35;77.50;;;25.20;;
5117;SDS011;2578;51.622;7.046;2024-01-10T01:13:01;75.97;;;24.40;;
5117;SDS011;2578;51.622;7.046;2024-01-10T01:15:28;80.30;;;26.50;;
5117;SDS011;2578;51.622;7.046;2024-01-10T01:17:53;76.80;;;22.77;;
5117;SDS011;2578;51.622;7.046;2024-01-10T01:20:19;77.20;;;23.53;;
5117;SDS011;2578;51.622;7.046;2024-01-10T01:22:45;86.60;;;24.13;;
5117;SDS011;2578;51.622;7.046;2024-01-10T01:25:11;77.73;;;23.37;;
5117;SDS011;2578;51.622;7.046;2024-01-10T01:27:37;75.93;;;22.10;;
5117;SDS011;2578;51.622;7.046;2024-01-10T01:30:03;89.17;;;23.37;;
5117;SDS011;2578;51.622;7.046;2024-01-10T01:32:29;79.30;;;23.73;;
5117;SDS011;2578;51.622;7.046;2024-01-10T01:34:55;77.27;;;22.90;;
5117;SDS011;2578;51.622;7.046;2024-01-10T01:37:21;77.93;;;23.03;;
5117;SDS011;2578;51.622;7.046;2024-01-10T01:39:47;77.27;;;23.00;;
5117;SDS011;2578;51.622;7.046;2024-01-10T01:42:13;75.60;;;22.33;;
5117;SDS011;2578;51.622;7.046;2024-01-10T01:44:39;80.60;;;23.57;;
5117;SDS011;2578;51.622;7.046;2024-01-10T01:47:04;80.27;;;24.00;;
5117;SDS011;2578;51.622;7.046;2024-01-10T01:49:30;78.57;;;23.63;;
5117;SDS011;2578;51.622;7.046;2024-01-10T01:51:56;77.30;;;22.47;;
5117;SDS011;2578;51.622;7.046;2024-01-10T01:54:22;76.63;;;23.00;;
5117;SDS011;2578;51.622;7.046;2024-01-10T01:56:49;76.77;;;23.10;;
5117;SDS011;2578;51.622;7.046;2024-01-10T01:59:15;76.03;;;23.70;;
5117;SDS011;2578;51.622;7.046;2024-01-10T02:01:42;77.70;;;23.80;;
5117;SDS011;2578;51.622;7.046;2024-01-10T02:04:08;86.37;;;24.13;;
5117;SDS011;2578;51.622;7.046;2024-01-10T02:06:34;78.27;;;23.13;;
5117;SDS011;2578;51.622;7.046;2024-01-10T02:09:00;76.70;;;21.60;;
5117;SDS011;2578;51.622;7.046;2024-01-10T02:11:26;79.97;;;23.33;;
5117;SDS011;2578;51.622;7.046;2024-01-10T02:13:52;77.57;;;22.13;;
5117;SDS011;2578;51.622;7.046;2024-01-10T02:16:21;76.47;;;21.30;;
5117;SDS011;2578;51.622;7.046;2024-01-10T02:18:48;78.40;;;22.73;;
5117;SDS011;2578;51.622;7.046;2024-01-10T02:21:14;78.37;;;22.97;;
5117;SDS011;2578;51.622;7.046;2024-01-10T02:23:40;77.53;;;20.80;;
5117;SDS011;2578;51.622;7.046;2024-01-10T02:26:06;75.30;;;20.30;;
5117;SDS011;2578;51.622;7.046;2024-01-10T02:28:32;78.83;;;22.83;;
5117;SDS011;2578;51.622;7.046;2024-01-10T02:30:58;80.37;;;21.00;;
5117;SDS011;2578;51.622;7.046;2024-01-10T02:33:24;79.20;;;21.20;;
5117;SDS011;2578;51.622;7.046;2024-01-10T02:35:50;75.10;;;20.23;;
5117;SDS011;2578;51.622;7.046;2024-01-10T02:38:16;75.57;;;20.33;;
5117;SDS011;2578;51.622;7.046;2024-01-10T02:40:45;79.67;;;23.37;;
5117;SDS011;2578;51.622;7.046;2024-01-10T02:43:11;76.90;;;22.27;;
5117;SDS011;2578;51.622;7.046;2024-01-10T02:45:37;75.30;;;21.00;;
5117;SDS011;2578;51.622;7.046;2024-01-10T02:48:03;80.20;;;21.80;;
5117;SDS011;2578;51.622;7.046;2024-01-10T02:50:29;77.67;;;21.13;;
5117;SDS011;2578;51.622;7.046;2024-01-10T02:52:55;79.20;;;22.23;;
5117;SDS011;2578;51.622;7.046;2024-01-10T02:55:21;76.50;;;20.80;;
5117;SDS011;2578;51.622;7.046;2024-01-10T02:57:46;79.00;;;21.47;;
5117;SDS011;2578;51.622;7.046;2024-01-10T03:00:12;79.43;;;22.70;;
5117;SDS011;2578;51.622;7.046;2024-01-10T03:02:39;79.67;;;20.30;;
5117;SDS011;2578;51.622;7.046;2024-01-10T03:05:04;76.30;;;20.97;;
5117;SDS011;2578;51.622;7.046;2024-01-10T03:07:30;81.77;;;22.20;;
5117;SDS011;2578;51.622;7.046;2024-01-10T03:09:56;75.40;;;20.23;;
5117;SDS011;2578;51.622;7.046;2024-01-10T03:12:22;78.10;;;21.50;;
5117;SDS011;2578;51.622;7.046;2024-01-10T03:14:48;76.97;;;21.30;;
5117;SDS011;2578;51.622;7.046;2024-01-10T03:17:14;83.33;;;21.87;;
5117;SDS011;2578;51.622;7.046;2024-01-10T03:19:40;75.70;;;20.70;;
5117;SDS011;2578;51.622;7.046;2024-01-10T03:22:09;76.57;;;20.50;;
5117;SDS011;2578;51.622;7.046;2024-01-10T03:24:36;81.00;;;23.10;;
5117;SDS011;2578;51.622;7.046;2024-01-10T03:27:03;76.80;;;21.07;;
5117;SDS011;2578;51.622;7.046;2024-01-10T03:29:29;75.47;;;20.30;;
5117;SDS011;2578;51.622;7.046;2024-01-10T03:31:55;77.80;;;21.87;;
5117;SDS011;2578;51.622;7.046;2024-01-10T03:34:21;75.77;;;21.10;;
5117;SDS011;2578;51.622;7.046;2024-01-10T03:36:47;80.93;;;23.10;;
5117;SDS011;2578;51.622;7.046;2024-01-10T03:39:13;78.87;;;21.80;;
5117;SDS011;2578;51.622;7.046;2024-01-10T03:41:39;84.00;;;24.70;;
5117;SDS011;2578;51.622;7.046;2024-01-10T03:44:05;78.50;;;21.43;;
5117;SDS011;2578;51.622;7.046;2024-01-10T03:46:31;81.17;;;22.80;;
5117;SDS011;2578;51.622;7.046;2024-01-10T03:48:57;76.90;;;21.27;;
5117;SDS011;2578;51.622;7.046;2024-01-10T03:51:23;78.87;;;21.37;;
5117;SDS011;2578;51.622;7.046;2024-01-10T03:53:49;75.27;;;18.53;;
5117;SDS011;2578;51.622;7.046;2024-01-10T03:56:15;75.80;;;20.20;;
5117;SDS011;2578;51.622;7.046;2024-01-10T03:58:42;79.50;;;21.20;;
5117;SDS011;2578;51.622;7.046;2024-01-10T04:01:08;76.50;;;19.63;;
5117;SDS011;2578;51.622;7.046;2024-01-10T04:03:34;74.77;;;18.80;;
5117;SDS011;2578;51.622;7.046;2024-01-10T04:06:00;76.20;;;20.23;;
5117;SDS011;2578;51.622;7.046;2024-01-10T04:08:26;83.03;;;23.10;;
5117;SDS011;2578;51.622;7.046;2024-01-10T04:10:52;76.50;;;20.03;;
5117;SDS011;2578;51.622;7.046;2024-01-10T04:13:18;77.07;;;20.37;;
5117;SDS011;2578;51.622;7.046;2024-01-10T04:15:44;75.07;;;19.30;;
5117;SDS011;2578;51.622;7.046;2024-01-10T04:18:10;81.60;;;21.90;;
5117;SDS011;2578;51.622;7.046;2024-01-10T04:20:36;75.60;;;18.93;;
5117;SDS011;2578;51.622;7.046;2024-01-10T04:23:02;74.93;;;18.93;;
5117;SDS011;2578;51.622;7.046;2024-01-10T04:25:28;75.90;;;19.73;;
5117;SDS011;2578;51.622;7.046;2024-01-10T04:27:54;72.00;;;19.27;;
5117;SDS011;2578;51.622;7.046;2024-01-10T04:30:20;77.43;;;19.00;;
5117;SDS011;2578;51.622;7.046;2024-01-10T04:32:46;72.00;;;18.30;;
5117;SDS011;2578;51.622;7.046;2024-01-10T04:35:12;71.87;;;18.27;;
5117;SDS011;2578;51.622;7.046;2024-01-10T04:37:38;70.60;;;18.07;;
5117;SDS011;2578;51.622;7.046;2024-01-10T04:40:04;72.10;;;19.03;;
5117;SDS011;2578;51.622;7.046;2024-01-10T04:42:30;71.77;;;18.00;;
5117;SDS011;2578;51.622;7.046;2024-01-10T04:44:56;74.03;;;19.20;;
5117;SDS011;2578;51.622;7.046;2024-01-10T04:47:22;72.57;;;18.30;;
5117;SDS011;2578;51.622;7.046;2024-01-10T04:49:48;79.40;;;20.63;;
5117;SDS011;2578;51.622;7.046;2024-01-10T04:52:14;73.00;;;18.93;;
5117;SDS011;2578;51.622;7.046;2024-01-10T04:54:40;75.63;;;20.50;;
5117;SDS011;2578;51.622;7.046;2024-01-10T04:57:06;76.60;;;20.20;;
5117;SDS011;2578;51.622;7.046;2024-01-10T04:59:33;78.03;;;20.90;;
5117;SDS011;2578;51.622;7.046;2024-01-10T05:01:59;79.87;;;20.57;;
5117;SDS011;2578;51.622;7.046;2024-01-10T05:04:25;74.17;;;18.90;;
5117;SDS011;2578;51.622;7.046;2024-01-10T05:06:50;84.07;;;20.53;;
5117;SDS011;2578;51.622;7.046;2024-01-10T05:09:16;77.00;;;21.70;;
5117;SDS011;2578;51.622;7.046;2024-01-10T05:11:42;78.40;;;19.13;;
5117;SDS011;2578;51.622;7.046;2024-01-10T05:14:08;74.20;;;18.90;;
5117;SDS011;2578;51.622;7.046;2024-01-10T05:16:34;76.70;;;20.43;;
5117;SDS011;2578;51.622;7.046;2024-01-10T05:19:00;79.40;;;21.87;;
5117;SDS011;2578;51.622;7.046;2024-01-10T05:21:30;74.07;;;19.37;;
5117;SDS011;2578;51.622;7.046;2024-01-10T05:23:56;78.53;;;19.40;;
5117;SDS011;2578;51.622;7.046;2024-01-10T05:26:22;79.03;;;20.93;;
5117;SDS011;2578;51.622;7.046;2024-01-10T05:28:48;74.17;;;19.67;;
5117;SDS011;2578;51.622;7.046;2024-01-10T05:31:14;74.07;;;19.73;;
5117;SDS011;2578;51.622;7.046;2024-01-10T05:33:40;75.17;;;20.53;;
5117;SDS011;2578;51.622;7.046;2024-01-10T05:36:07;75.47;;;21.17;;
5117;SDS011;2578;51.622;7.046;2024-01-10T05:38:36;78.30;;;21.33;;
5117;SDS011;2578;51.622;7.046;2024-01-10T05:41:02;77.47;;;21.63;;
5117;SDS011;2578;51.622;7.046;2024-01-10T05:43:28;73.17;;;18.00;;
5117;SDS011;2578;51.622;7.046;2024-01-10T05:45:54;74.07;;;19.33;;
5117;SDS011;2578;51.622;7.046;2024-01-10T05:48:20;73.87;;;19.47;;
5117;SDS011;2578;51.622;7.046;2024-01-10T05:50:46;82.30;;;19.87;;
5117;SDS011;2578;51.622;7.046;2024-01-10T05:53:11;110.43;;;21.07;;
5117;SDS011;2578;51.622;7.046;2024-01-10T05:55:41;74.87;;;19.03;;
5117;SDS011;2578;51.622;7.046;2024-01-10T05:58:07;77.47;;;20.83;;
5117;SDS011;2578;51.622;7.046;2024-01-10T06:00:34;84.93;;;21.37;;
5117;SDS011;2578;51.622;7.046;2024-01-10T06:03:00;80.10;;;20.50;;
5117;SDS011;2578;51.622;7.046;2024-01-10T06:05:26;78.63;;;20.30;;
5117;SDS011;2578;51.622;7.046;2024-01-10T06:07:52;73.63;;;18.77;;
5117;SDS011;2578;51.622;7.046;2024-01-10T06:10:18;73.33;;;19.00;;
5117;SDS011;2578;51.622;7.046;2024-01-10T06:12:44;75.50;;;20.20;;
5117;SDS011;2578;51.622;7.046;2024-01-10T06:15:10;75.37;;;19.80;;
5117;SDS011;2578;51.622;7.046;2024-01-10T06:17:36;74.60;;;17.70;;
5117;SDS011;2578;51.622;7.046;2024-01-10T06:20:03;85.53;;;20.33;;
5117;SDS011;2578;51.622;7.046;2024-01-10T06:22:29;76.00;;;18.73;;
5117;SDS011;2578;51.622;7.046;2024-01-10T06:24:55;77.63;;;19.97;;
5117;SDS011;2578;51.622;7.046;2024-01-10T06:27:21;77.80;;;19.10;;
5117;SDS011;2578;51.622;7.046;2024-01-10T06:29:47;75.57;;;20.57;;
5117;SDS011;2578;51.622;7.046;2024-01-10T06:32:13;72.70;;;18.47;;
5117;SDS011;2578;51.622;7.046;2024-01-10T06:34:39;73.50;;;18.90;;
5117;SDS011;2578;51.622;7.046;2024-01-10T06:37:05;81.20;;;20.50;;
5117;SDS011;2578;51.622;7.046;2024-01-10T06:39:34;77.30;;;22.53;;
5117;SDS011;2578;51.622;7.046;2024-01-10T06:42:00;76.90;;;20.83;;
5117;SDS011;2578;51.622;7.046;2024-01-10T06:44:28;77.93;;;20.27;;
5117;SDS011;2578;51.622;7.046;2024-01-10T06:46:54;74.60;;;20.20;;
5117;SDS011;2578;51.622;7.046;2024-01-10T06:49:21;74.90;;;19.30;;
5117;SDS011;2578;51.622;7.046;2024-01-10T06:51:47;78.87;;;20.60;;
5117;SDS011;2578;51.622;7.046;2024-01-10T06:54:13;76.40;;;19.60;;
5117;SDS011;2578;51.622;7.046;2024-01-10T06:56:39;76.60;;;22.17;;
5117;SDS011;2578;51.622;7.046;2024-01-10T06:59:06;90.77;;;24.50;;
5117;SDS011;2578;51.622;7.046;2024-01-10T07:01:32;73.67;;;20.10;;
5117;SDS011;2578;51.622;7.046;2024-01-10T07:03:57;79.70;;;22.23;;
5117;SDS011;2578;51.622;7.046;2024-01-10T07:06:23;75.33;;;21.63;;
5117;SDS011;2578;51.622;7.046;2024-01-10T07:08:50;83.30;;;22.37;;
5117;SDS011;2578;51.622;7.046;2024-01-10T07:11:19;75.67;;;21.77;;
5117;SDS011;2578;51.622;7.046;2024-01-10T07:13:45;77.40;;;21.67;;
5117;SDS011;2578;51.622;7.046;2024-01-10T07:16:11;76.90;;;19.90;;
5117;SDS011;2578;51.622;7.046;2024-01-10T07:18:40;82.50;;;22.50;;
5117;SDS011;2578;51.622;7.046;2024-01-10T07:21:06;74.90;;;20.60;;
5117;SDS011;2578;51.622;7.046;2024-01-10T07:23:34;75.00;;;19.97;;
5117;SDS011;2578;51.622;7.046;2024-01-10T07:26:00;74.40;;;20.40;;
5117;SDS011;2578;51.622;7.046;2024-01-10T07:28:26;75.27;;;19.40;;
5117;SDS011;2578;51.622;7.046;2024-01-10T07:30:52;79.03;;;21.00;;
5117;SDS011;2578;51.622;7.046;2024-01-10T07:33:17;79.40;;;20.97;;
5117;SDS011;2578;51.622;7.046;2024-01-10T07:35:43;80.57;;;21.23;;
5117;SDS011;2578;51.622;7.046;2024-01-10T07:38:09;73.60;;;19.20;;
5117;SDS011;2578;51.622;7.046;2024-01-10T07:40:35;72.90;;;18.07;;
5117;SDS011;2578;51.622;7.046;2024-01-10T07:43:02;73.20;;;18.63;;
5117;SDS011;2578;51.622;7.046;2024-01-10T07:45:28;81.67;;;20.13;;
5117;SDS011;2578;51.622;7.046;2024-01-10T07:47:54;76.93;;;19.57;;
5117;SDS011;2578;51.622;7.046;2024-01-10T07:50:20;74.27;;;19.57;;
5117;SDS011;2578;51.622;7.046;2024-01-10T07:52:49;76.93;;;20.03;;
5117;SDS011;2578;51.622;7.046;2024-01-10T07:55:14;75.27;;;19.77;;
5117;SDS011;2578;51.622;7.046;2024-01-10T07:57:41;75.50;;;19.73;;
5117;SDS011;2578;51.622;7.046;2024-01-10T08:00:07;75.80;;;21.00;;
5117;SDS011;2578;51.622;7.046;2024-01-10T08:02:36;73.47;;;19.40;;
5117;SDS011;2578;51.622;7.046;2024-01-10T08:05:03;75.47;;;20.23;;
5117;SDS011;2578;51.622;7.046;2024-01-10T08:07:31;83.47;;;19.70;;
5117;SDS011;2578;51.622;7.046;2024-01-10T08:10:00;73.63;;;18.63;;
5117;SDS011;2578;51.622;7.046;2024-01-10T08:12:26;72.93;;;19.47;;
5117;SDS011;2578;51.622;7.046;2024-01-10T08:14:53;86.90;;;23.03;;
5117;SDS011;2578;51.622;7.046;2024-01-10T08:17:19;74.97;;;20.13;;
5117;SDS011;2578;51.622;7.046;2024-01-10T08:19:45;76.53;;;21.33;;
5117;SDS011;2578;51.622;7.046;2024-01-10T08:22:11;77.63;;;22.30;;
5117;SDS011;2578;51.622;7.046;2024-01-10T08:24:38;80.60;;;23.37;;
5117;SDS011;2578;51.622;7.046;2024-01-10T08:27:04;92.37;;;25.53;;
5117;SDS011;2578;51.622;7.046;2024-01-10T08:29:30;80.60;;;23.63;;
5117;SDS011;2578;51.622;7.046;2024-01-10T08:31:56;86.13;;;24.97;;
5117;SDS011;2578;51.622;7.046;2024-01-10T08:34:22;79.37;;;21.17;;
5117;SDS011;2578;51.622;7.046;2024-01-10T08:36:49;84.10;;;21.63;;
5117;SDS011;2578;51.622;7.046;2024-01-10T08:39:18;76.10;;;21.37;;
5117;SDS011;2578;51.622;7.046;2024-01-10T08:41:45;80.43;;;22.50;;
5117;SDS011;2578;51.622;7.046;2024-01-10T08:44:11;75.07;;;20.10;;
5117;SDS011;2578;51.622;7.046;2024-01-10T08:46:37;74.60;;;20.03;;
5117;SDS011;2578;51.622;7.046;2024-01-10T08:49:03;77.97;;;22.63;;
5117;SDS011;2578;51.622;7.046;2024-01-10T08:51:29;82.43;;;23.63;;
5117;SDS011;2578;51.622;7.046;2024-01-10T08:53:55;84.57;;;24.10;;
5117;SDS011;2578;51.622;7.046;2024-01-10T08:56:21;82.87;;;23.93;;
5117;SDS011;2578;51.622;7.046;2024-01-10T08:58:47;81.03;;;23.37;;
5117;SDS011;2578;51.622;7.046;2024-01-10T09:01:13;86.37;;;24.17;;
5117;SDS011;2578;51.622;7.046;2024-01-10T09:03:40;77.13;;;22.50;;
5117;SDS011;2578;51.622;7.046;2024-01-10T09:06:06;82.53;;;22.23;;
5117;SDS011;2578;51.622;7.046;2024-01-10T09:08:35;74.17;;;20.67;;
5117;SDS011;2578;51.622;7.046;2024-01-10T09:11:01;75.33;;;22.17;;
5117;SDS011;2578;51.622;7.046;2024-01-10T09:13:28;74.40;;;23.40;;
5117;SDS011;2578;51.622;7.046;2024-01-10T09:15:54;77.90;;;25.20;;
5117;SDS011;2578;51.622;7.046;2024-01-10T09:18:20;74.63;;;24.27;;
5117;SDS011;2578;51.622;7.046;2024-01-10T09:20:46;84.37;;;26.70;;
5117;SDS011;2578;51.622;7.046;2024-01-10T09:23:13;102.07;;;28.53;;
5117;SDS011;2578;51.622;7.046;2024-01-10T09:25:39;79.27;;;26.73;;
5117;SDS011;2578;51.622;7.046;2024-01-10T09:28:04;76.07;;;25.37;;
5117;SDS011;2578;51.622;7.046;2024-01-10T09:30:30;77.07;;;26.43;;
5117;SDS011;2578;51.622;7.046;2024-01-10T09:32:56;86.93;;;27.40;;
5117;SDS011;2578;51.622;7.046;2024-01-10T09:35:24;82.73;;;27.70;;
5117;SDS011;2578;51.622;7.046;2024-01-10T09:37:50;79.60;;;26.97;;
5117;SDS011;2578;51.622;7.046;2024-01-10T09:40:16;75.27;;;26.80;;
5117;SDS011;2578;51.622;7.046;2024-01-10T09:42:45;88.80;;;30.37;;
5117;SDS011;2578;51.622;7.046;2024-01-10T09:45:14;81.60;;;28.73;;
5117;SDS011;2578;51.622;7.046;2024-01-10T09:47:42;76.67;;;26.40;;
5117;SDS011;2578;51.622;7.046;2024-01-10T09:50:13;84.77;;;30.73;;
5117;SDS011;2578;51.622;7.046;2024-01-10T09:52:41;86.90;;;31.27;;
5117;SDS011;2578;51.622;7.046;2024-01-10T09:55:13;87.83;;;28.70;;
5117;SDS011;2578;51.622;7.046;2024-01-10T09:57:41;84.83;;;29.57;;
5117;SDS011;2578;51.622;7.046;2024-01-10T10:00:08;89.50;;;28.80;;
5117;SDS011;2578;51.622;7.046;2024-01-10T10:02:37;76.83;;;25.27;;
5117;SDS011;2578;51.622;7.046;2024-01-10T10:05:14;73.17;;;23.77;;
5117;SDS011;2578;51.622;7.046;2024-01-10T10:10:09;75.80;;;27.53;;
5117;SDS011;2578;51.622;7.046;2024-01-10T10:12:50;84.10;;;30.70;;
5117;SDS011;2578;51.622;7.046;2024-01-10T10:15:20;95.00;;;31.97;;
5117;SDS011;2578;51.622;7.046;2024-01-10T10:17:52;76.60;;;28.43;;
5117;SDS011;2578;51.622;7.046;2024-01-10T10:20:22;77.20;;;29.57;;
5117;SDS011;2578;51.622;7.046;2024-01-10T10:22:59;72.87;;;27.53;;
5117;SDS011;2578;51.622;7.046;2024-01-10T10:25:35;74.03;;;28.20;;
5117;SDS011;2578;51.622;7.046;2024-01-10T10:28:03;81.93;;;31.10;;
5117;SDS011;2578;51.622;7.046;2024-01-10T10:30:32;77.83;;;29.60;;
5117;SDS011;2578;51.622;7.046;2024-01-10T10:32:58;81.80;;;30.93;;
5117;SDS011;2578;51.622;7.046;2024-01-10T10:35:24;75.23;;;29.47;;
5117;SDS011;2578;51.622;7.046;2024-01-10T10:37:53;75.57;;;28.80;;
5117;SDS011;2578;51.622;7.046;2024-01-10T10:40:20;81.10;;;29.57;;
5117;SDS011;2578;51.622;7.046;2024-01-10T10:42:53;76.70;;;28.97;;
5117;SDS011;2578;51.622;7.046;2024-01-10T10:45:20;81.10;;;29.30;;
5117;SDS011;2578;51.622;7.046;2024-01-10T10:47:55;78.27;;;30.27;;
5117;SDS011;2578;51.622;7.046;2024-01-10T10:50:24;70.87;;;27.80;;
5117;SDS011;2578;51.622;7.046;2024-01-10T10:52:52;75.70;;;28.83;;
5117;SDS011;2578;51.622;7.046;2024-01-10T10:55:21;73.70;;;31.17;;
5117;SDS011;2578;51.622;7.046;2024-01-10T10:57:49;73.20;;;31.07;;
5117;SDS011;2578;51.622;7.046;2024-01-10T11:00:17;76.17;;;31.00;;
5117;SDS011;2578;51.622;7.046;2024-01-10T11:02:45;78.60;;;30.20;;
5117;SDS011;2578;51.622;7.046;2024-01-10T11:05:11;76.00;;;30.73;;
5117;SDS011;2578;51.622;7.046;2024-01-10T11:07:40;78.73;;;32.20;;
5117;SDS011;2578;51.622;7.046;2024-01-10T11:10:08;78.17;;;31.57;;
5117;SDS011;2578;51.622;7.046;2024-01-10T11:12:53;72.83;;;26.20;;
5117;SDS011;2578;51.622;7.046;2024-01-10T11:23:59;76.90;;;33.07;;
5117;SDS011;2578;51.622;7.046;2024-01-10T11:26:26;72.97;;;31.43;;
5117;SDS011;2578;51.622;7.046;2024-01-10T11:28:52;85.23;;;33.60;;
5117;SDS011;2578;51.622;7.046;2024-01-10T11:31:31;73.53;;;32.00;;
5117;SDS011;2578;51.622;7.046;2024-01-10T11:33:57;75.27;;;30.20;;
5117;SDS011;2578;51.622;7.046;2024-01-10T11:36:23;81.00;;;33.03;;
5117;SDS011;2578;51.622;7.046;2024-01-10T11:41:24;74.10;;;29.40;;
5117;SDS011;2578;51.622;7.046;2024-01-10T11:46:46;79.00;;;32.60;;
5117;SDS011;2578;51.622;7.046;2024-01-10T11:49:14;87.40;;;32.90;;
5117;SDS011;2578;51.622;7.046;2024-01-10T11:51:50;77.67;;;30.83;;
5117;SDS011;2578;51.622;7.046;2024-01-10T11:57:12;74.30;;;31.43;;
5117;SDS011;2578;51.622;7.046;2024-01-10T11:59:42;88.13;;;33.00;;
5117;SDS011;2578;51.622;7.046;2024-01-10T12:02:10;78.77;;;33.23;;
5117;SDS011;2578;51.622;7.046;2024-01-10T12:04:37;78.00;;;34.00;;
5117;SDS011;2578;51.622;7.046;2024-01-10T12:07:04;83.47;;;33.00;;
5117;SDS011;2578;51.622;7.046;2024-01-10T12:09:32;79.23;;;32.30;;
5117;SDS011;2578;51.622;7.046;2024-01-10T12:11:59;79.00;;;31.47;;
5117;SDS011;2578;51.622;7.046;2024-01-10T12:14:25;74.73;;;30.80;;
5117;SDS011;2578;51.622;7.046;2024-01-10T12:16:51;75.20;;;31.23;;
5117;SDS011;2578;51.622;7.046;2024-01-10T12:19:17;79.73;;;31.70;;
5117;SDS011;2578;51.622;7.046;2024-01-10T12:21:44;76.23;;;28.93;;
5117;SDS011;2578;51.622;7.046;2024-01-10T12:24:09;80.23;;;31.20;;
5117;SDS011;2578;51.622;7.046;2024-01-10T12:26:35;78.13;;;30.03;;
5117;SDS011;2578;51.622;7.046;2024-01-10T12:29:01;74.53;;;26.83;;
5117;SDS011;2578;51.622;7.046;2024-01-10T12:31:31;76.33;;;28.37;;
5117;SDS011;2578;51.622;7.046;2024-01-10T12:34:00;81.43;;;29.23;;
5117;SDS011;2578;51.622;7.046;2024-01-10T12:36:26;87.80;;;31.33;;
5117;SDS011;2578;51.622;7.046;2024-01-10T12:38:52;76.10;;;33.33;;
5117;SDS011;2578;51.622;7.046;2024-01-10T12:41:18;74.90;;;30.90;;
5117;SDS011;2578;51.622;7.046;2024-01-10T12:43:53;82.37;;;32.83;;
5117;SDS011;2578;51.622;7.046;2024-01-10T12:46:22;73.20;;;29.97;;
5117;SDS011;2578;51.622;7.046;2024-01-10T12:49:02;90.07;;;37.43;;
5117;SDS011;2578;51.622;7.046;2024-01-10T12:51:30;81.17;;;30.53;;
5117;SDS011;2578;51.622;7.046;2024-01-10T12:53:56;75.80;;;29.80;;
5117;SDS011;2578;51.622;7.046;2024-01-10T12:56:26;74.00;;;30.73;;
5117;SDS011;2578;51.622;7.046;2024-01-10T12:58:53;73.00;;;30.37;;
5117;SDS011;2578;51.622;7.046;2024-01-10T13:01:20;72.80;;;30.53;;
5117;SDS011;2578;51.622;7.046;2024-01-10T13:03:47;78.87;;;31.00;;
5117;SDS011;2578;51.622;7.046;2024-01-10T13:06:13;74.00;;;30.40;;
5117;SDS011;2578;51.622;7.046;2024-01-10T13:08:41;71.10;;;26.80;;
5117;SDS011;2578;51.622;7.046;2024-01-10T13:11:07;83.40;;;28.80;;
5117;SDS011;2578;51.622;7.046;2024-01-10T13:13:34;75.53;;;27.93;;
5117;SDS011;2578;51.622;7.046;2024-01-10T13:16:00;74.57;;;28.50;;
5117;SDS011;2578;51.622;7.046;2024-01-10T13:18:27;77.53;;;30.17;;
5117;SDS011;2578;51.622;7.046;2024-01-10T13:20:53;69.97;;;25.40;;
5117;SDS011;2578;51.622;7.046;2024-01-10T13:23:20;76.53;;;28.67;;
5117;SDS011;2578;51.622;7.046;2024-01-10T13:25:48;86.23;;;32.80;;
5117;SDS011;2578;51.622;7.046;2024-01-10T13:28:14;75.33;;;29.53;;
5117;SDS011;2578;51.622;7.046;2024-01-10T13:30:40;77.93;;;32.23;;
5117;SDS011;2578;51.622;7.046;2024-01-10T13:33:08;74.87;;;30.10;;
5117;SDS011;2578;51.622;7.046;2024-01-10T13:35:37;75.67;;;32.10;;
5117;SDS011;2578;51.622;7.046;2024-01-10T13:38:03;73.67;;;30.30;;
5117;SDS011;2578;51.622;7.046;2024-01-10T13:40:30;77.50;;;30.80;;
5117;SDS011;2578;51.622;7.046;2024-01-10T13:42:57;72.17;;;29.90;;
5117;SDS011;2578;51.622;7.046;2024-01-10T13:45:25;73.30;;;31.00;;
5117;SDS011;2578;51.622;7.046;2024-01-10T13:47:51;76.77;;;30.80;;
5117;SDS011;2578;51.622;7.046;2024-01-10T13:50:17;72.90;;;30.07;;
5117;SDS011;2578;51.622;7.046;2024-01-10T13:52:43;86.40;;;30.37;;
5117;SDS011;2578;51.622;7.046;2024-01-10T13:55:09;72.47;;;29.13;;
5117;SDS011;2578;51.622;7.046;2024-01-10T13:57:35;77.43;;;31.47;;
5117;SDS011;2578;51.622;7.046;2024-01-10T14:00:01;77.10;;;31.30;;
5117;SDS011;2578;51.622;7.046;2024-01-10T14:02:32;75.00;;;31.03;;
5117;SDS011;2578;51.622;7.046;2024-01-10T14:04:58;79.17;;;29.37;;
5117;SDS011;2578;51.622;7.046;2024-01-10T14:07:24;72.23;;;30.30;;
5117;SDS011;2578;51.622;7.046;2024-01-10T14:09:50;70.90;;;30.10;;
5117;SDS011;2578;51.622;7.046;2024-01-10T14:12:19;76.07;;;30.43;;
5117;SDS011;2578;51.622;7.046;2024-01-10T14:14:45;71.50;;;29.20;;
5117;SDS011;2578;51.622;7.046;2024-01-10T14:17:11;81.87;;;31.67;;
5117;SDS011;2578;51.622;7.046;2024-01-10T14:19:37;71.57;;;29.93;;
5117;SDS011;2578;51.622;7.046;2024-01-10T14:22:03;76.00;;;29.40;;
5117;SDS011;2578;51.622;7.046;2024-01-10T14:24:29;73.97;;;29.77;;
5117;SDS011;2578;51.622;7.046;2024-01-10T14:26:57;76.00;;;29.60;;
5117;SDS011;2578;51.622;7.046;2024-01-10T14:29:23;73.73;;;27.67;;
5117;SDS011;2578;51.622;7.046;2024-01-10T14:31:50;75.40;;;27.40;;
5117;SDS011;2578;51.622;7.046;2024-01-10T14:34:16;72.40;;;26.50;;
5117;SDS011;2578;51.622;7.046;2024-01-10T14:36:42;76.03;;;28.20;;
5117;SDS011;2578;51.622;7.046;2024-01-10T14:39:08;75.83;;;26.40;;
5117;SDS011;2578;51.622;7.046;2024-01-10T14:41:37;73.90;;;26.63;;
5117;SDS011;2578;51.622;7.046;2024-01-10T14:44:03;74.70;;;27.30;;
5117;SDS011;2578;51.622;7.046;2024-01-10T14:46:29;70.53;;;24.93;;
5117;SDS011;2578;51.622;7.046;2024-01-10T14:48:54;72.77;;;25.30;;
5117;SDS011;2578;51.622;7.046;2024-01-10T14:51:21;76.10;;;28.13;;
5117;SDS011;2578;51.622;7.046;2024-01-10T14:53:47;73.23;;;26.33;;
5117;SDS011;2578;51.622;7.046;2024-01-10T14:56:13;75.53;;;27.00;;
5117;SDS011;2578;51.622;7.046;2024-01-10T14:58:39;79.73;;;28.90;;
5117;SDS011;2578;51.622;7.046;2024-01-10T15:01:14;72.37;;;26.83;;
5117;SDS011;2578;51.622;7.046;2024-01-10T15:03:40;75.17;;;28.43;;
5117;SDS011;2578;51.622;7.046;2024-01-10T15:06:07;73.60;;;28.70;;